sensor_id;sensor_type;location;lat;lon;timestamp;P1;durP1;ratioP1;P2;durP2;ratioP2
489;SDS011;231;48.120;11.576;2023-10-08T06:46:42;4.83;;;3.80;;
489;SDS011;231;48.120;11.576;2023-10-08T06:49:13;5.07;;;3.67;;
489;SDS011;231;48.120;11.576;2023-10-08T06:52:10;5.80;;;3.90;;
489;SDS011;231;48.120;11.576;2023-10-08T06:54:49;4.20;;;3.47;;
489;SDS011;231;48.120;11.576;2023-10-08T06:57:20;3.47;;;3.27;;
489;SDS011;231;48.120;11.576;2023-10-08T07:00:12;3.57;;;3.07;;
489;SDS011;231;48.120;11.576;2023-10-08T07:03:06;4.73;;;3.70;;
489;SDS011;231;48.120;11.576;2023-10-08T07:05:40;6.37;;;3.50;;
489;SDS011;231;48.120;11.576;2023-10-08T07:08:21;3.80;;;3.53;;
489;SDS011;231;48.120;11.576;2023-10-08T07:14:15;5.13;;;3.07;;
489;SDS011;231;48.120;11.576;2023-10-08T07:16:45;7.03;;;3.40;;
489;SDS011;231;48.120;11.576;2023-10-08T07:19:20;4.93;;;3.80;;
489;SDS011;231;48.120;11.576;2023-10-08T07:22:01;6.40;;;4.20;;
489;SDS011;231;48.120;11.576;2023-10-08T07:24:43;4.83;;;3.17;;
489;SDS011;231;48.120;11.576;2023-10-08T07:27:22;6.60;;;3.30;;
489;SDS011;231;48.120;11.576;2023-10-08T07:29:57;5.63;;;4.80;;
489;SDS011;231;48.120;11.576;2023-10-08T07:32:28;5.70;;;4.10;;
489;SDS011;231;48.120;11.576;2023-10-08T07:34:59;9.60;;;3.87;;
489;SDS011;231;48.120;11.576;2023-10-08T07:37:41;5.00;;;3.50;;
489;SDS011;231;48.120;11.576;2023-10-08T07:40:10;5.83;;;3.67;;
489;SDS011;231;48.120;11.576;2023-10-08T07:42:38;10.93;;;3.43;;
489;SDS011;231;48.120;11.576;2023-10-08T07:45:05;8.10;;;4.40;;
489;SDS011;231;48.120;11.576;2023-10-08T07:47:34;5.03;;;3.70;;
489;SDS011;231;48.120;11.576;2023-10-08T07:50:01;4.73;;;3.80;;
489;SDS011;231;48.120;11.576;2023-10-08T07:52:36;5.50;;;3.30;;
489;SDS011;231;48.120;11.576;2023-10-08T07:55:05;5.03;;;4.10;;
489;SDS011;231;48.120;11.576;2023-10-08T07:57:33;4.60;;;3.27;;
489;SDS011;231;48.120;11.576;2023-10-08T07:59:59;5.30;;;4.47;;
489;SDS011;231;48.120;11.576;2023-10-08T08:02:48;4.73;;;3.43;;
489;SDS011;231;48.120;11.576;2023-10-08T08:05:29;8.83;;;3.77;;
489;SDS011;231;48.120;11.576;2023-10-08T08:08:19;4.27;;;3.67;;
489;SDS011;231;48.120;11.576;2023-10-08T08:11:11;6.50;;;3.80;;
489;SDS011;231;48.120;11.576;2023-10-08T08:16:35;4.20;;;2.97;;
489;SDS011;231;48.120;11.576;2023-10-08T08:19:21;4.30;;;3.27;;
489;SDS011;231;48.120;11.576;2023-10-08T08:22:08;4.10;;;3.27;;
489;SDS011;231;48.120;11.576;2023-10-08T08:25:27;5.50;;;3.63;;
489;SDS011;231;48.120;11.576;2023-10-08T08:28:38;7.63;;;3.33;;
489;SDS011;231;48.120;11.576;2023-10-08T09:15:46;9.80;;;4.00;;
489;SDS011;231;48.120;11.576;2023-10-08T09:26:10;6.40;;;4.00;;
489;SDS011;231;48.120;11.576;2023-10-08T09:28:40;7.07;;;4.33;;
489;SDS011;231;48.120;11.576;2023-10-08T09:31:09;5.73;;;3.93;;
489;SDS011;231;48.120;11.576;2023-10-08T09:33:37;8.20;;;4.03;;
489;SDS011;231;48.120;11.576;2023-10-08T09:36:05;9.40;;;5.50;;
489;SDS011;231;48.120;11.576;2023-10-08T09:38:36;7.37;;;4.20;;
489;SDS011;231;48.120;11.576;2023-10-08T09:41:03;12.30;;;3.87;;
489;SDS011;231;48.120;11.576;2023-10-08T09:43:33;6.13;;;3.37;;
489;SDS011;231;48.120;11.576;2023-10-08T09:46:09;3.60;;;3.40;;
489;SDS011;231;48.120;11.576;2023-10-08T09:48:43;6.30;;;3.07;;
489;SDS011;231;48.120;11.576;2023-10-08T09:51:16;4.97;;;3.00;;
489;SDS011;231;48.120;11.576;2023-10-08T09:53:47;7.20;;;3.60;;
489;SDS011;231;48.120;11.576;2023-10-08T09:56:19;6.60;;;4.00;;
489;SDS011;231;48.120;11.576;2023-10-08T09:58:48;9.93;;;4.57;;
489;SDS011;231;48.120;11.576;2023-10-08T10:01:16;5.80;;;3.70;;
489;SDS011;231;48.120;11.576;2023-10-08T10:03:44;7.20;;;3.90;;
489;SDS011;231;48.120;11.576;2023-10-08T10:06:12;7.67;;;4.23;;
489;SDS011;231;48.120;11.576;2023-10-08T10:08:41;8.60;;;4.90;;
489;SDS011;231;48.120;11.576;2023-10-08T10:11:08;7.50;;;4.23;;
489;SDS011;231;48.120;11.576;2023-10-08T10:13:38;6.30;;;4.07;;
489;SDS011;231;48.120;11.576;2023-10-08T10:16:10;4.90;;;3.80;;
489;SDS011;231;48.120;11.576;2023-10-08T10:18:38;6.37;;;3.90;;
489;SDS011;231;48.120;11.576;2023-10-08T10:21:24;6.83;;;4.10;;
489;SDS011;231;48.120;11.576;2023-10-08T10:23:57;7.60;;;4.57;;
489;SDS011;231;48.120;11.576;2023-10-08T10:26:26;9.73;;;5.60;;
489;SDS011;231;48.120;11.576;2023-10-08T10:34:21;7.60;;;4.00;;
489;SDS011;231;48.120;11.576;2023-10-08T10:36:52;8.07;;;4.20;;
489;SDS011;231;48.120;11.576;2023-10-08T10:39:22;6.23;;;4.53;;
489;SDS011;231;48.120;11.576;2023-10-08T10:42:00;6.30;;;5.20;;
489;SDS011;231;48.120;11.576;2023-10-08T10:44:29;8.53;;;5.07;;
489;SDS011;231;48.120;11.576;2023-10-08T10:46:57;5.73;;;3.60;;
489;SDS011;231;48.120;11.576;2023-10-08T10:49:40;8.27;;;5.30;;
489;SDS011;231;48.120;11.576;2023-10-08T10:52:14;15.40;;;5.40;;
489;SDS011;231;48.120;11.576;2023-10-08T10:54:56;6.10;;;4.73;;
489;SDS011;231;48.120;11.576;2023-10-08T10:57:25;13.40;;;5.03;;
489;SDS011;231;48.120;11.576;2023-10-08T11:00:03;8.30;;;3.63;;
489;SDS011;231;48.120;11.576;2023-10-08T11:02:55;7.53;;;4.40;;
489;SDS011;231;48.120;11.576;2023-10-08T11:05:26;9.20;;;3.70;;
489;SDS011;231;48.120;11.576;2023-10-08T11:07:54;7.20;;;3.97;;
489;SDS011;231;48.120;11.576;2023-10-08T11:10:30;9.67;;;4.90;;
489;SDS011;231;48.120;11.576;2023-10-08T11:12:57;7.43;;;5.07;;
489;SDS011;231;48.120;11.576;2023-10-08T11:15:26;6.77;;;4.13;;
489;SDS011;231;48.120;11.576;2023-10-08T11:18:06;12.17;;;5.60;;
489;SDS011;231;48.120;11.576;2023-10-08T11:20:35;7.10;;;3.80;;
489;SDS011;231;48.120;11.576;2023-10-08T11:23:05;4.47;;;4.20;;
489;SDS011;231;48.120;11.576;2023-10-08T11:25:51;8.50;;;4.20;;
489;SDS011;231;48.120;11.576;2023-10-08T11:28:18;6.93;;;4.60;;
489;SDS011;231;48.120;11.576;2023-10-08T11:30:46;6.33;;;3.93;;
489;SDS011;231;48.120;11.576;2023-10-08T11:33:17;10.30;;;5.13;;
489;SDS011;231;48.120;11.576;2023-10-08T11:35:56;7.83;;;5.47;;
489;SDS011;231;48.120;11.576;2023-10-08T11:38:25;5.07;;;3.60;;
489;SDS011;231;48.120;11.576;2023-10-08T11:40:52;7.50;;;4.20;;
489;SDS011;231;48.120;11.576;2023-10-08T11:43:22;8.13;;;5.00;;
489;SDS011;231;48.120;11.576;2023-10-08T11:45:49;7.13;;;5.13;;
489;SDS011;231;48.120;11.576;2023-10-08T11:48:17;13.20;;;3.63;;
489;SDS011;231;48.120;11.576;2023-10-08T11:50:53;8.80;;;3.90;;
489;SDS011;231;48.120;11.576;2023-10-08T11:53:22;8.50;;;4.27;;
489;SDS011;231;48.120;11.576;2023-10-08T11:55:50;12.67;;;4.43;;
489;SDS011;231;48.120;11.576;2023-10-08T11:58:21;7.40;;;4.10;;
489;SDS011;231;48.120;11.576;2023-10-08T12:01:02;5.60;;;3.37;;
489;SDS011;231;48.120;11.576;2023-10-08T12:03:30;5.67;;;3.37;;
489;SDS011;231;48.120;11.576;2023-10-08T12:05:58;14.20;;;5.77;;
489;SDS011;231;48.120;11.576;2023-10-08T12:08:25;6.00;;;3.87;;
489;SDS011;231;48.120;11.576;2023-10-08T12:10:53;7.10;;;3.87;;
489;SDS011;231;48.120;11.576;2023-10-08T12:13:20;7.43;;;4.03;;
489;SDS011;231;48.120;11.576;2023-10-08T12:15:50;12.80;;;5.17;;
489;SDS011;231;48.120;11.576;2023-10-08T12:18:22;8.97;;;4.30;;
489;SDS011;231;48.120;11.576;2023-10-08T12:20:50;5.50;;;4.30;;
489;SDS011;231;48.120;11.576;2023-10-08T12:23:20;8.10;;;5.10;;
489;SDS011;231;48.120;11.576;2023-10-08T12:25:51;8.07;;;4.90;;
489;SDS011;231;48.120;11.576;2023-10-08T12:28:19;7.67;;;3.70;;
489;SDS011;231;48.120;11.576;2023-10-08T12:30:48;7.23;;;4.13;;
489;SDS011;231;48.120;11.576;2023-10-08T12:33:17;7.90;;;5.43;;
489;SDS011;231;48.120;11.576;2023-10-08T12:35:44;6.30;;;3.63;;
489;SDS011;231;48.120;11.576;2023-10-08T12:38:12;7.30;;;4.63;;
489;SDS011;231;48.120;11.576;2023-10-08T12:40:41;12.00;;;3.90;;
489;SDS011;231;48.120;11.576;2023-10-08T12:43:13;5.40;;;2.90;;
489;SDS011;231;48.120;11.576;2023-10-08T12:45:44;4.87;;;3.53;;
489;SDS011;231;48.120;11.576;2023-10-08T12:48:17;8.77;;;4.80;;
489;SDS011;231;48.120;11.576;2023-10-08T12:50:45;18.93;;;5.23;;
489;SDS011;231;48.120;11.576;2023-10-08T12:53:18;7.70;;;4.90;;
489;SDS011;231;48.120;11.576;2023-10-08T12:55:52;7.20;;;3.83;;
489;SDS011;231;48.120;11.576;2023-10-08T12:58:21;8.27;;;3.60;;
489;SDS011;231;48.120;11.576;2023-10-08T13:00:51;10.20;;;3.80;;
489;SDS011;231;48.120;11.576;2023-10-08T13:03:22;8.27;;;4.80;;
489;SDS011;231;48.120;11.576;2023-10-08T13:05:50;7.33;;;3.63;;
489;SDS011;231;48.120;11.576;2023-10-08T13:08:18;9.87;;;3.90;;
489;SDS011;231;48.120;11.576;2023-10-08T13:10:45;9.00;;;3.80;;
489;SDS011;231;48.120;11.576;2023-10-08T13:13:13;7.90;;;3.57;;
489;SDS011;231;48.120;11.576;2023-10-08T13:15:40;10.87;;;3.83;;
489;SDS011;231;48.120;11.576;2023-10-08T13:18:08;7.87;;;4.00;;
489;SDS011;231;48.120;11.576;2023-10-08T13:20:35;7.20;;;3.40;;
489;SDS011;231;48.120;11.576;2023-10-08T13:23:07;6.13;;;4.20;;
489;SDS011;231;48.120;11.576;2023-10-08T13:25:34;7.83;;;4.60;;
489;SDS011;231;48.120;11.576;2023-10-08T13:28:04;7.17;;;4.30;;
489;SDS011;231;48.120;11.576;2023-10-08T13:30:34;5.47;;;3.57;;
489;SDS011;231;48.120;11.576;2023-10-08T13:33:02;5.97;;;3.23;;
489;SDS011;231;48.120;11.576;2023-10-08T13:35:29;12.07;;;4.30;;
489;SDS011;231;48.120;11.576;2023-10-08T13:37:56;8.90;;;4.20;;
489;SDS011;231;48.120;11.576;2023-10-08T13:40:24;13.43;;;5.10;;
489;SDS011;231;48.120;11.576;2023-10-08T13:42:57;22.77;;;4.37;;
489;SDS011;231;48.120;11.576;2023-10-08T13:45:24;6.33;;;3.50;;
489;SDS011;231;48.120;11.576;2023-10-08T13:47:55;8.60;;;4.17;;
489;SDS011;231;48.120;11.576;2023-10-08T13:50:24;8.97;;;3.60;;
489;SDS011;231;48.120;11.576;2023-10-08T13:52:55;11.27;;;5.13;;
489;SDS011;231;48.120;11.576;2023-10-08T13:55:22;7.70;;;3.47;;
489;SDS011;231;48.120;11.576;2023-10-08T13:57:50;10.07;;;5.43;;
489;SDS011;231;48.120;11.576;2023-10-08T14:00:17;39.80;;;4.20;;
489;SDS011;231;48.120;11.576;2023-10-08T14:03:02;5.37;;;4.50;;
489;SDS011;231;48.120;11.576;2023-10-08T14:05:33;8.23;;;4.30;;
489;SDS011;231;48.120;11.576;2023-10-08T14:07:59;7.90;;;4.03;;
489;SDS011;231;48.120;11.576;2023-10-08T14:10:28;8.87;;;4.90;;
489;SDS011;231;48.120;11.576;2023-10-08T14:12:56;8.57;;;4.90;;
489;SDS011;231;48.120;11.576;2023-10-08T14:15:26;7.20;;;3.90;;
489;SDS011;231;48.120;11.576;2023-10-08T14:17:57;10.37;;;4.73;;
489;SDS011;231;48.120;11.576;2023-10-08T14:20:31;6.93;;;4.17;;
489;SDS011;231;48.120;11.576;2023-10-08T14:22:58;10.10;;;4.90;;
489;SDS011;231;48.120;11.576;2023-10-08T14:25:27;15.97;;;6.00;;
489;SDS011;231;48.120;11.576;2023-10-08T14:27:58;6.17;;;4.47;;
489;SDS011;231;48.120;11.576;2023-10-08T14:30:29;10.87;;;3.63;;
489;SDS011;231;48.120;11.576;2023-10-08T14:32:58;8.13;;;4.10;;
489;SDS011;231;48.120;11.576;2023-10-08T14:35:26;10.10;;;4.90;;
489;SDS011;231;48.120;11.576;2023-10-08T14:38:11;14.43;;;5.00;;
489;SDS011;231;48.120;11.576;2023-10-08T14:40:56;6.20;;;4.73;;
489;SDS011;231;48.120;11.576;2023-10-08T14:43:40;8.80;;;4.73;;
489;SDS011;231;48.120;11.576;2023-10-08T14:46:08;6.53;;;4.03;;
489;SDS011;231;48.120;11.576;2023-10-08T14:48:36;12.00;;;6.03;;
489;SDS011;231;48.120;11.576;2023-10-08T14:51:05;9.43;;;4.70;;
489;SDS011;231;48.120;11.576;2023-10-08T14:53:34;13.60;;;4.20;;
489;SDS011;231;48.120;11.576;2023-10-08T14:56:03;9.50;;;5.77;;
489;SDS011;231;48.120;11.576;2023-10-08T14:58:31;7.97;;;4.77;;
489;SDS011;231;48.120;11.576;2023-10-08T15:00:58;9.30;;;5.07;;
489;SDS011;231;48.120;11.576;2023-10-08T15:03:26;11.30;;;4.80;;
489;SDS011;231;48.120;11.576;2023-10-08T15:05:54;9.60;;;4.67;;
489;SDS011;231;48.120;11.576;2023-10-08T15:08:22;13.23;;;5.63;;
489;SDS011;231;48.120;11.576;2023-10-08T15:10:51;6.60;;;4.70;;
489;SDS011;231;48.120;11.576;2023-10-08T15:13:19;6.33;;;4.27;;
489;SDS011;231;48.120;11.576;2023-10-08T15:15:46;7.60;;;5.27;;
489;SDS011;231;48.120;11.576;2023-10-08T15:18:14;10.97;;;5.27;;
489;SDS011;231;48.120;11.576;2023-10-08T15:20:43;9.50;;;5.30;;
489;SDS011;231;48.120;11.576;2023-10-08T15:23:11;11.37;;;6.20;;
489;SDS011;231;48.120;11.576;2023-10-08T15:25:38;10.20;;;5.97;;
489;SDS011;231;48.120;11.576;2023-10-08T15:28:07;12.40;;;5.00;;
489;SDS011;231;48.120;11.576;2023-10-08T15:30:34;8.73;;;4.93;;
489;SDS011;231;48.120;11.576;2023-10-08T15:33:01;9.90;;;4.70;;
489;SDS011;231;48.120;11.576;2023-10-08T15:35:28;12.97;;;5.67;;
489;SDS011;231;48.120;11.576;2023-10-08T15:37:55;9.30;;;5.40;;
489;SDS011;231;48.120;11.576;2023-10-08T15:40:21;10.77;;;6.13;;
489;SDS011;231;48.120;11.576;2023-10-08T15:42:49;8.77;;;5.67;;
489;SDS011;231;48.120;11.576;2023-10-08T15:45:18;15.90;;;6.03;;
489;SDS011;231;48.120;11.576;2023-10-08T15:47:46;9.37;;;5.30;;
489;SDS011;231;48.120;11.576;2023-10-08T15:50:14;12.20;;;6.53;;
489;SDS011;231;48.120;11.576;2023-10-08T15:52:41;12.70;;;5.30;;
489;SDS011;231;48.120;11.576;2023-10-08T15:55:09;13.43;;;6.70;;
489;SDS011;231;48.120;11.576;2023-10-08T15:57:36;20.07;;;7.30;;
489;SDS011;231;48.120;11.576;2023-10-08T16:00:03;8.57;;;5.80;;
489;SDS011;231;48.120;11.576;2023-10-08T16:02:34;14.63;;;7.00;;
489;SDS011;231;48.120;11.576;2023-10-08T16:05:02;43.93;;;37.50;;
489;SDS011;231;48.120;11.576;2023-10-08T16:07:32;11.20;;;6.37;;
489;SDS011;231;48.120;11.576;2023-10-08T16:09:59;10.77;;;7.13;;
489;SDS011;231;48.120;11.576;2023-10-08T16:12:26;12.40;;;7.30;;
489;SDS011;231;48.120;11.576;2023-10-08T16:14:53;8.23;;;5.30;;
489;SDS011;231;48.120;11.576;2023-10-08T16:17:20;12.63;;;6.73;;
489;SDS011;231;48.120;11.576;2023-10-08T16:19:48;14.03;;;6.90;;
489;SDS011;231;48.120;11.576;2023-10-08T16:22:16;11.37;;;7.57;;
489;SDS011;231;48.120;11.576;2023-10-08T16:24:44;10.50;;;5.77;;
489;SDS011;231;48.120;11.576;2023-10-08T16:27:11;7.13;;;5.60;;
489;SDS011;231;48.120;11.576;2023-10-08T16:29:40;8.50;;;6.90;;
489;SDS011;231;48.120;11.576;2023-10-08T16:32:07;10.17;;;6.47;;
489;SDS011;231;48.120;11.576;2023-10-08T16:34:36;11.43;;;5.97;;
489;SDS011;231;48.120;11.576;2023-10-08T16:37:04;9.37;;;6.20;;
489;SDS011;231;48.120;11.576;2023-10-08T16:39:31;8.43;;;5.97;;
489;SDS011;231;48.120;11.576;2023-10-08T16:42:00;18.30;;;6.13;;
489;SDS011;231;48.120;11.576;2023-10-08T16:44:29;12.07;;;6.60;;
489;SDS011;231;48.120;11.576;2023-10-08T16:46:56;13.77;;;7.40;;
489;SDS011;231;48.120;11.576;2023-10-08T16:49:22;11.30;;;7.60;;
489;SDS011;231;48.120;11.576;2023-10-08T16:51:54;10.70;;;6.47;;
489;SDS011;231;48.120;11.576;2023-10-08T16:54:22;8.17;;;6.80;;
489;SDS011;231;48.120;11.576;2023-10-08T16:56:49;11.03;;;7.00;;
489;SDS011;231;48.120;11.576;2023-10-08T16:59:16;14.03;;;5.87;;
489;SDS011;231;48.120;11.576;2023-10-08T17:01:43;11.23;;;5.93;;
489;SDS011;231;48.120;11.576;2023-10-08T17:04:10;12.00;;;6.70;;
489;SDS011;231;48.120;11.576;2023-10-08T17:06:37;14.77;;;6.67;;
489;SDS011;231;48.120;11.576;2023-10-08T17:09:04;8.37;;;6.07;;
489;SDS011;231;48.120;11.576;2023-10-08T17:11:40;9.80;;;5.87;;
489;SDS011;231;48.120;11.576;2023-10-08T17:14:10;14.77;;;8.03;;
489;SDS011;231;48.120;11.576;2023-10-08T17:16:37;9.60;;;6.43;;
489;SDS011;231;48.120;11.576;2023-10-08T17:19:05;12.33;;;7.40;;
489;SDS011;231;48.120;11.576;2023-10-08T17:21:32;10.57;;;5.93;;
489;SDS011;231;48.120;11.576;2023-10-08T17:23:59;14.50;;;8.03;;
489;SDS011;231;48.120;11.576;2023-10-08T17:26:26;13.17;;;7.40;;
489;SDS011;231;48.120;11.576;2023-10-08T17:28:54;14.40;;;7.83;;
489;SDS011;231;48.120;11.576;2023-10-08T17:31:21;15.33;;;7.90;;
489;SDS011;231;48.120;11.576;2023-10-08T17:33:48;13.77;;;7.17;;
489;SDS011;231;48.120;11.576;2023-10-08T17:36:15;9.10;;;7.07;;
489;SDS011;231;48.120;11.576;2023-10-08T17:38:42;14.40;;;6.47;;
489;SDS011;231;48.120;11.576;2023-10-08T17:41:09;9.20;;;5.50;;
489;SDS011;231;48.120;11.576;2023-10-08T17:43:37;9.67;;;6.77;;
489;SDS011;231;48.120;11.576;2023-10-08T17:46:05;13.27;;;6.93;;
489;SDS011;231;48.120;11.576;2023-10-08T17:48:33;9.33;;;7.50;;
489;SDS011;231;48.120;11.576;2023-10-08T17:51:01;10.83;;;7.20;;
489;SDS011;231;48.120;11.576;2023-10-08T17:53:31;13.73;;;7.03;;
489;SDS011;231;48.120;11.576;2023-10-08T17:55:58;9.27;;;6.67;;
489;SDS011;231;48.120;11.576;2023-10-08T17:58:25;12.40;;;7.23;;
489;SDS011;231;48.120;11.576;2023-10-08T18:00:52;9.37;;;7.23;;
489;SDS011;231;48.120;11.576;2023-10-08T18:03:21;12.53;;;7.40;;
489;SDS011;231;48.120;11.576;2023-10-08T18:05:47;11.00;;;7.30;;
489;SDS011;231;48.120;11.576;2023-10-08T18:08:18;13.43;;;7.27;;
489;SDS011;231;48.120;11.576;2023-10-08T18:10:47;9.40;;;6.80;;
489;SDS011;231;48.120;11.576;2023-10-08T18:13:16;15.43;;;7.33;;
489;SDS011;231;48.120;11.576;2023-10-08T18:15:45;8.07;;;5.57;;
489;SDS011;231;48.120;11.576;2023-10-08T18:18:13;12.13;;;7.27;;
489;SDS011;231;48.120;11.576;2023-10-08T18:20:41;10.93;;;6.47;;
489;SDS011;231;48.120;11.576;2023-10-08T18:23:11;11.20;;;6.90;;
489;SDS011;231;48.120;11.576;2023-10-08T18:25:38;13.43;;;7.57;;
489;SDS011;231;48.120;11.576;2023-10-08T18:28:05;17.27;;;8.00;;
489;SDS011;231;48.120;11.576;2023-10-08T18:30:33;13.90;;;8.00;;
489;SDS011;231;48.120;11.576;2023-10-08T18:33:00;11.43;;;6.40;;
489;SDS011;231;48.120;11.576;2023-10-08T18:35:27;12.13;;;7.47;;
489;SDS011;231;48.120;11.576;2023-10-08T18:37:57;18.30;;;7.20;;
489;SDS011;231;48.120;11.576;2023-10-08T18:40:25;14.77;;;8.60;;
489;SDS011;231;48.120;11.576;2023-10-08T18:42:53;17.13;;;9.53;;
489;SDS011;231;48.120;11.576;2023-10-08T18:45:21;12.57;;;7.00;;
489;SDS011;231;48.120;11.576;2023-10-08T18:47:48;12.73;;;6.57;;
489;SDS011;231;48.120;11.576;2023-10-08T18:50:15;13.50;;;9.00;;
489;SDS011;231;48.120;11.576;2023-10-08T18:52:46;12.00;;;9.03;;
489;SDS011;231;48.120;11.576;2023-10-08T18:55:15;15.00;;;7.67;;
489;SDS011;231;48.120;11.576;2023-10-08T18:57:41;11.73;;;6.90;;
489;SDS011;231;48.120;11.576;2023-10-08T19:00:11;10.30;;;6.50;;
489;SDS011;231;48.120;11.576;2023-10-08T19:02:39;15.57;;;8.43;;
489;SDS011;231;48.120;11.576;2023-10-08T19:05:07;13.23;;;7.53;;
489;SDS011;231;48.120;11.576;2023-10-08T19:07:35;11.27;;;8.20;;
489;SDS011;231;48.120;11.576;2023-10-08T19:10:03;14.47;;;9.83;;
489;SDS011;231;48.120;11.576;2023-10-08T19:12:32;18.87;;;12.57;;
489;SDS011;231;48.120;11.576;2023-10-08T19:15:01;14.70;;;9.40;;
489;SDS011;231;48.120;11.576;2023-10-08T19:17:30;17.03;;;9.17;;
489;SDS011;231;48.120;11.576;2023-10-08T19:19:58;14.77;;;9.63;;
489;SDS011;231;48.120;11.576;2023-10-08T19:22:25;18.07;;;10.33;;
489;SDS011;231;48.120;11.576;2023-10-08T19:24:52;12.57;;;8.63;;
489;SDS011;231;48.120;11.576;2023-10-08T19:27:20;16.10;;;10.47;;
489;SDS011;231;48.120;11.576;2023-10-08T19:29:50;14.27;;;9.87;;
489;SDS011;231;48.120;11.576;2023-10-08T19:32:18;14.80;;;9.90;;
489;SDS011;231;48.120;11.576;2023-10-08T19:34:45;12.50;;;9.10;;
489;SDS011;231;48.120;11.576;2023-10-08T19:37:12;10.43;;;8.27;;
489;SDS011;231;48.120;11.576;2023-10-08T19:39:40;9.60;;;7.93;;
489;SDS011;231;48.120;11.576;2023-10-08T19:42:07;18.50;;;8.87;;
489;SDS011;231;48.120;11.576;2023-10-08T19:44:34;17.43;;;8.50;;
489;SDS011;231;48.120;11.576;2023-10-08T19:47:02;10.97;;;7.63;;
489;SDS011;231;48.120;11.576;2023-10-08T19:49:29;13.93;;;9.80;;
489;SDS011;231;48.120;11.576;2023-10-08T19:51:56;9.33;;;8.70;;
489;SDS011;231;48.120;11.576;2023-10-08T19:54:23;19.10;;;8.70;;
489;SDS011;231;48.120;11.576;2023-10-08T19:56:55;11.70;;;9.43;;
489;SDS011;231;48.120;11.576;2023-10-08T19:59:24;11.27;;;8.27;;
489;SDS011;231;48.120;11.576;2023-10-08T20:01:51;12.30;;;9.47;;
489;SDS011;231;48.120;11.576;2023-10-08T20:04:20;11.00;;;8.83;;
489;SDS011;231;48.120;11.576;2023-10-08T20:06:47;15.27;;;9.43;;
489;SDS011;231;48.120;11.576;2023-10-08T20:09:17;10.57;;;8.60;;
489;SDS011;231;48.120;11.576;2023-10-08T20:11:44;14.27;;;8.37;;
489;SDS011;231;48.120;11.576;2023-10-08T20:14:12;11.97;;;9.00;;
489;SDS011;231;48.120;11.576;2023-10-08T20:16:40;19.83;;;10.10;;
489;SDS011;231;48.120;11.576;2023-10-08T20:19:07;14.67;;;8.90;;
489;SDS011;231;48.120;11.576;2023-10-08T20:21:37;13.20;;;8.27;;
489;SDS011;231;48.120;11.576;2023-10-08T20:24:05;16.87;;;10.20;;
489;SDS011;231;48.120;11.576;2023-10-08T20:26:32;16.20;;;8.90;;
489;SDS011;231;48.120;11.576;2023-10-08T20:28:59;14.03;;;8.40;;
489;SDS011;231;48.120;11.576;2023-10-08T20:31:27;9.87;;;9.40;;
489;SDS011;231;48.120;11.576;2023-10-08T20:33:56;13.60;;;10.17;;
489;SDS011;231;48.120;11.576;2023-10-08T20:36:25;9.90;;;9.20;;
489;SDS011;231;48.120;11.576;2023-10-08T20:38:54;11.57;;;7.97;;
489;SDS011;231;48.120;11.576;2023-10-08T20:41:23;9.77;;;8.33;;
489;SDS011;231;48.120;11.576;2023-10-08T20:43:49;11.50;;;8.83;;
489;SDS011;231;48.120;11.576;2023-10-08T20:46:17;13.10;;;9.70;;
489;SDS011;231;48.120;11.576;2023-10-08T20:48:47;15.60;;;9.53;;
489;SDS011;231;48.120;11.576;2023-10-08T20:51:15;17.80;;;10.37;;
489;SDS011;231;48.120;11.576;2023-10-08T20:53:43;16.03;;;9.87;;
489;SDS011;231;48.120;11.576;2023-10-08T20:56:12;19.10;;;11.33;;
489;SDS011;231;48.120;11.576;2023-10-08T20:58:38;13.67;;;10.60;;
489;SDS011;231;48.120;11.576;2023-10-08T21:01:07;15.37;;;11.10;;
489;SDS011;231;48.120;11.576;2023-10-08T21:03:35;12.93;;;9.93;;
489;SDS011;231;48.120;11.576;2023-10-08T21:06:02;16.50;;;10.33;;
489;SDS011;231;48.120;11.576;2023-10-08T21:08:29;14.50;;;9.87;;
489;SDS011;231;48.120;11.576;2023-10-08T21:10:56;12.37;;;8.30;;
489;SDS011;231;48.120;11.576;2023-10-08T21:13:24;16.00;;;10.70;;
489;SDS011;231;48.120;11.576;2023-10-08T21:15:51;13.70;;;10.40;;
489;SDS011;231;48.120;11.576;2023-10-08T21:18:18;11.87;;;10.33;;
489;SDS011;231;48.120;11.576;2023-10-08T21:20:46;14.80;;;10.40;;
489;SDS011;231;48.120;11.576;2023-10-08T21:23:14;20.50;;;10.17;;
489;SDS011;231;48.120;11.576;2023-10-08T21:25:40;15.77;;;9.60;;
489;SDS011;231;48.120;11.576;2023-10-08T21:28:07;11.03;;;9.23;;
489;SDS011;231;48.120;11.576;2023-10-08T21:30:35;16.80;;;9.63;;
489;SDS011;231;48.120;11.576;2023-10-08T21:33:02;14.80;;;10.17;;
489;SDS011;231;48.120;11.576;2023-10-08T21:35:33;10.63;;;8.50;;
489;SDS011;231;48.120;11.576;2023-10-08T21:38:00;16.07;;;9.00;;
489;SDS011;231;48.120;11.576;2023-10-08T21:40:28;18.00;;;9.10;;
489;SDS011;231;48.120;11.576;2023-10-08T21:42:54;19.03;;;10.17;;
489;SDS011;231;48.120;11.576;2023-10-08T21:45:25;13.07;;;8.20;;
489;SDS011;231;48.120;11.576;2023-10-08T21:47:54;10.43;;;8.20;;
489;SDS011;231;48.120;11.576;2023-10-08T21:50:24;13.70;;;10.90;;
489;SDS011;231;48.120;11.576;2023-10-08T21:52:51;10.07;;;8.47;;
489;SDS011;231;48.120;11.576;2023-10-08T21:55:29;12.23;;;9.60;;
489;SDS011;231;48.120;11.576;2023-10-08T21:57:58;19.90;;;9.20;;
489;SDS011;231;48.120;11.576;2023-10-08T22:00:25;10.07;;;9.43;;
489;SDS011;231;48.120;11.576;2023-10-08T22:03:12;12.73;;;8.67;;
489;SDS011;231;48.120;11.576;2023-10-08T22:05:40;12.47;;;9.07;;
489;SDS011;231;48.120;11.576;2023-10-08T22:08:10;13.23;;;9.37;;
489;SDS011;231;48.120;11.576;2023-10-08T22:10:38;15.03;;;9.20;;
489;SDS011;231;48.120;11.576;2023-10-08T22:13:05;14.00;;;7.60;;
489;SDS011;231;48.120;11.576;2023-10-08T22:15:33;13.67;;;9.17;;
489;SDS011;231;48.120;11.576;2023-10-08T22:18:09;10.83;;;7.83;;
489;SDS011;231;48.120;11.576;2023-10-08T22:20:50;12.60;;;8.70;;
489;SDS011;231;48.120;11.576;2023-10-08T22:23:17;10.57;;;8.30;;
489;SDS011;231;48.120;11.576;2023-10-08T22:25:50;15.70;;;9.70;;
489;SDS011;231;48.120;11.576;2023-10-08T22:28:19;17.00;;;9.47;;
489;SDS011;231;48.120;11.576;2023-10-08T22:30:49;17.33;;;9.40;;
489;SDS011;231;48.120;11.576;2023-10-08T22:33:19;13.17;;;8.80;;
489;SDS011;231;48.120;11.576;2023-10-08T22:35:50;14.97;;;7.50;;
489;SDS011;231;48.120;11.576;2023-10-08T22:38:18;15.47;;;9.33;;
489;SDS011;231;48.120;11.576;2023-10-08T22:40:48;16.43;;;9.30;;
489;SDS011;231;48.120;11.576;2023-10-08T22:43:36;16.83;;;7.60;;
489;SDS011;231;48.120;11.576;2023-10-08T22:46:05;15.33;;;7.67;;
489;SDS011;231;48.120;11.576;2023-10-08T22:48:35;10.57;;;6.83;;
489;SDS011;231;48.120;11.576;2023-10-08T22:51:08;19.30;;;9.17;;
489;SDS011;231;48.120;11.576;2023-10-08T22:53:37;16.40;;;7.33;;
489;SDS011;231;48.120;11.576;2023-10-08T22:56:06;12.60;;;6.97;;
489;SDS011;231;48.120;11.576;2023-10-08T22:58:35;13.47;;;7.67;;
489;SDS011;231;48.120;11.576;2023-10-08T23:01:11;10.40;;;7.60;;
489;SDS011;231;48.120;11.576;2023-10-08T23:03:40;17.93;;;7.90;;
489;SDS011;231;48.120;11.576;2023-10-08T23:06:09;12.57;;;7.53;;
489;SDS011;231;48.120;11.576;2023-10-08T23:08:36;14.73;;;7.60;;
489;SDS011;231;48.120;11.576;2023-10-08T23:11:04;14.07;;;7.80;;
489;SDS011;231;48.120;11.576;2023-10-08T23:13:32;11.93;;;6.57;;
489;SDS011;231;48.120;11.576;2023-10-08T23:16:01;11.80;;;7.80;;
489;SDS011;231;48.120;11.576;2023-10-08T23:18:29;11.90;;;7.23;;
489;SDS011;231;48.120;11.576;2023-10-08T23:20:59;10.07;;;7.03;;
489;SDS011;231;48.120;11.576;2023-10-08T23:23:26;11.07;;;6.23;;
489;SDS011;231;48.120;11.576;2023-10-08T23:25:52;12.53;;;7.50;;
489;SDS011;231;48.120;11.576;2023-10-08T23:28:21;13.83;;;7.83;;
489;SDS011;231;48.120;11.576;2023-10-08T23:30:48;12.67;;;7.87;;